Time;durP1;ratioP1;P1;durP2;ratioP2;P2;SDS_P1;SDS_P2;PMS_P1;PMS_P2;Temp;Humidity;BMP_temperature;BMP_pressure;BME280_temperature;BME280_humidity;BME280_pressure;Samples;Min_cycle;Max_cycle;Signal;HPM_P1;HPM_P2
2021/07/07 00:00:38;;;;;;;6.00;2.40;;;;;;;20.94;100.00;96120.28;5042027;28;20222;-69
2021/07/07 00:03:06;;;;;;;6.00;2.58;;;;;;;21.08;100.00;96122.41;5041380;28;20205;-69
2021/07/07 00:05:32;;;;;;;6.72;2.28;;;;;;;20.99;100.00;96120.34;5041133;28;20205;-68
2021/07/07 00:07:59;;;;;;;5.63;2.10;;;;;;;20.81;100.00;96107.19;5040874;28;20240;-68
2021/07/07 00:10:28;;;;;;;3.85;2.20;;;;;;;20.84;100.00;96104.06;5040657;28;20209;-69
2021/07/07 00:12:54;;;;;;;5.45;2.38;;;;;;;20.76;100.00;96106.31;5041225;28;20286;-69
2021/07/07 00:15:25;;;;;;;2.90;2.17;;;;;;;20.87;100.00;96116.94;5040749;28;20221;-69
2021/07/07 00:17:51;;;;;;;5.38;2.50;;;;;;;20.87;100.00;96115.09;5038812;28;21163;-68
2021/07/07 00:20:20;;;;;;;9.73;2.40;;;;;;;20.94;100.00;96105.03;5044420;28;20205;-69
2021/07/07 00:22:47;;;;;;;3.47;2.50;;;;;;;21.00;100.00;96103.22;5044929;28;20263;-69
2021/07/07 00:25:14;;;;;;;6.88;2.70;;;;;;;21.08;100.00;96105.50;5044158;28;20205;-69
2021/07/07 00:27:41;;;;;;;6.50;2.28;;;;;;;21.05;100.00;96112.19;5043081;28;20225;-69
2021/07/07 00:30:09;;;;;;;6.05;2.30;;;;;;;21.14;100.00;96115.25;5045189;28;20216;-68
2021/07/07 00:32:36;;;;;;;8.95;2.53;;;;;;;21.09;100.00;96124.03;5045424;28;20201;-69
2021/07/07 00:35:03;;;;;;;4.72;2.75;;;;;;;21.13;100.00;96122.47;5043795;28;20221;-69
2021/07/07 00:37:30;;;;;;;5.75;2.40;;;;;;;21.03;100.00;96125.00;5044372;28;20216;-68
2021/07/07 00:39:57;;;;;;;4.60;2.50;;;;;;;20.96;100.00;96128.88;5044864;28;20209;-69
2021/07/07 00:42:23;;;;;;;8.75;2.55;;;;;;;21.02;100.00;96128.72;5044720;28;20685;-69
2021/07/07 00:44:50;;;;;;;4.05;2.60;;;;;;;21.08;100.00;96129.63;5043794;28;20210;-69
2021/07/07 00:47:16;;;;;;;6.40;2.53;;;;;;;21.04;100.00;96125.78;5043784;28;20209;-69
2021/07/07 00:49:43;;;;;;;7.25;2.50;;;;;;;21.10;100.00;96128.31;5044432;28;20205;-69
2021/07/07 00:52:11;;;;;;;7.47;2.28;;;;;;;21.08;100.00;96138.47;5044375;28;20208;-69
2021/07/07 00:54:39;;;;;;;4.28;2.28;;;;;;;21.16;100.00;96139.94;5044880;28;20229;-69
2021/07/07 00:57:06;;;;;;;4.78;2.22;;;;;;;20.99;100.00;96139.94;5044202;28;20205;-69
2021/07/07 00:59:33;;;;;;;4.85;2.30;;;;;;;21.04;100.00;96141.88;5043390;28;21051;-69
2021/07/07 01:02:01;;;;;;;7.03;2.60;;;;;;;20.88;100.00;96148.84;5043088;28;20571;-69
2021/07/07 01:04:28;;;;;;;8.65;2.85;;;;;;;20.91;100.00;96148.38;5043603;28;20212;-69
2021/07/07 01:06:54;;;;;;;7.10;2.70;;;;;;;20.90;100.00;96148.59;5043837;28;20201;-68
2021/07/07 01:09:21;;;;;;;3.90;2.40;;;;;;;20.94;100.00;96150.56;5044330;28;20244;-69
2021/07/07 01:11:48;;;;;;;4.60;2.58;;;;;;;21.01;100.00;96151.19;5044558;28;20216;-69
2021/07/07 01:14:15;;;;;;;4.30;2.72;;;;;;;20.95;100.00;96149.50;5044667;28;20224;-69
2021/07/07 01:16:43;;;;;;;3.97;2.33;;;;;;;21.04;100.00;96144.53;5044016;28;20208;-69
2021/07/07 01:19:10;;;;;;;5.05;2.70;;;;;;;20.94;100.00;96149.75;5042856;28;20220;-69
2021/07/07 01:21:37;;;;;;;7.97;2.72;;;;;;;20.89;100.00;96158.50;5044340;28;20209;-69
2021/07/07 01:24:05;;;;;;;8.77;2.58;;;;;;;21.07;100.00;96162.84;5043853;28;20204;-68
2021/07/07 01:26:32;;;;;;;5.60;2.58;;;;;;;20.98;100.00;96169.66;5043926;28;20220;-69
2021/07/07 01:28:58;;;;;;;5.03;2.40;;;;;;;21.01;100.00;96169.16;5042590;28;20734;-69
2021/07/07 01:31:25;;;;;;;8.23;2.67;;;;;;;20.74;100.00;96167.34;5044397;28;20672;-69
2021/07/07 01:33:51;;;;;;;5.03;2.75;;;;;;;20.86;100.00;96164.38;5043872;28;20212;-69
2021/07/07 01:36:18;;;;;;;6.57;2.80;;;;;;;20.93;100.00;96162.31;5044389;28;20209;-69
2021/07/07 01:38:44;;;;;;;4.70;2.70;;;;;;;20.96;100.00;96153.00;5043848;28;20236;-68
2021/07/07 01:41:13;;;;;;;4.65;2.65;;;;;;;21.10;100.00;96162.34;5044215;28;20685;-69
2021/07/07 01:43:39;;;;;;;9.32;2.50;;;;;;;20.94;100.00;96153.25;5044820;28;20227;-69
2021/07/07 01:46:06;;;;;;;3.58;2.40;;;;;;;21.02;100.00;96157.41;5043517;28;20209;-69
2021/07/07 01:48:32;;;;;;;7.88;2.83;;;;;;;21.02;100.00;96154.72;5043597;28;20225;-69
2021/07/07 01:50:59;;;;;;;10.27;2.70;;;;;;;21.09;100.00;96156.19;5044785;28;20212;-69
2021/07/07 01:53:25;;;;;;;5.80;2.40;;;;;;;21.11;100.00;96156.72;5045099;28;20197;-69
2021/07/07 01:55:55;;;;;;;4.10;2.60;;;;;;;21.10;100.00;96151.63;5045863;28;20232;-69
2021/07/07 01:58:23;;;;;;;8.20;2.75;;;;;;;21.11;100.00;96153.25;5045016;28;20225;-68
2021/07/07 02:00:49;;;;;;;5.60;2.63;;;;;;;20.87;100.00;96152.59;5044157;28;20212;-69
2021/07/07 02:03:16;;;;;;;7.95;2.95;;;;;;;20.81;100.00;96149.25;5043826;28;20208;-69
2021/07/07 02:05:42;;;;;;;5.57;3.08;;;;;;;20.75;100.00;96152.88;5044874;28;20213;-69
2021/07/07 02:08:10;;;;;;;13.48;2.85;;;;;;;20.86;100.00;96160.84;5045173;28;20221;-69
2021/07/07 02:10:38;;;;;;;7.60;2.78;;;;;;;20.94;100.00;96158.59;5045402;28;20212;-69
2021/07/07 02:13:06;;;;;;;5.30;2.85;;;;;;;20.87;100.00;96160.63;5044891;28;20201;-69
2021/07/07 02:15:35;;;;;;;7.68;3.20;;;;;;;20.89;100.00;96160.41;5046031;28;20222;-69
2021/07/07 02:18:03;;;;;;;5.50;2.92;;;;;;;20.95;100.00;96164.75;5044308;28;20225;-69
2021/07/07 02:20:33;;;;;;;11.32;3.58;;;;;;;20.94;100.00;96163.97;5045506;28;20213;-68
2021/07/07 02:23:00;;;;;;;7.50;3.42;;;;;;;20.85;100.00;96157.38;5045624;28;20205;-69
2021/07/07 02:25:28;;;;;;;12.13;6.93;;;;;;;20.81;100.00;96151.94;5045938;28;20197;-69
2021/07/07 02:27:56;;;;;;;7.53;5.13;;;;;;;20.69;100.00;96154.63;5041487;28;20225;-69
2021/07/07 02:30:25;;;;;;;10.75;5.38;;;;;;;20.81;100.00;96162.66;5042525;28;20200;-69
2021/07/07 02:32:54;;;;;;;9.05;5.18;;;;;;;20.87;100.00;96163.31;5045488;28;20581;-69
2021/07/07 02:35:23;;;;;;;5.50;3.40;;;;;;;20.79;100.00;96156.72;5043751;28;20228;-69
2021/07/07 02:37:53;;;;;;;8.40;3.65;;;;;;;20.81;100.00;96151.94;5043185;28;20236;-69
2021/07/07 02:40:20;;;;;;;4.90;3.53;;;;;;;20.92;100.00;96138.47;5042992;28;20201;-69
2021/07/07 02:42:47;;;;;;;7.10;3.53;;;;;;;20.96;100.00;96140.44;5042226;28;20208;-68
2021/07/07 02:45:15;;;;;;;6.80;3.47;;;;;;;20.96;100.00;96135.06;5042450;28;20205;-69
2021/07/07 02:47:43;;;;;;;5.40;3.35;;;;;;;21.03;100.00;96133.03;5041544;28;20229;-69
2021/07/07 02:50:12;;;;;;;4.07;3.50;;;;;;;20.96;100.00;96129.72;5043158;28;20205;-68
2021/07/07 02:52:40;;;;;;;8.40;3.67;;;;;;;20.66;100.00;96125.69;5043389;28;20646;-69
2021/07/07 02:55:08;;;;;;;7.80;3.60;;;;;;;20.67;100.00;96124.63;5043970;28;20221;-68
2021/07/07 03:00:16;;;;;;;10.93;3.42;;;;;;;20.98;100.00;96111.50;5043029;28;20207;-69
2021/07/07 03:02:42;;;;;;;6.25;3.20;;;;;;;20.80;100.00;96119.00;5044964;28;20205;-69
2021/07/07 03:05:11;;;;;;;8.90;3.83;;;;;;;20.73;100.00;96139.75;5044691;28;20197;-69
2021/07/07 03:07:37;;;;;;;7.20;3.63;;;;;;;20.71;100.00;96143.69;5044191;28;20205;-69
2021/07/07 03:10:04;;;;;;;9.30;3.30;;;;;;;20.78;100.00;96152.44;5044654;28;20204;-69
2021/07/07 03:12:31;;;;;;;5.82;3.78;;;;;;;20.73;100.00;96145.09;5044660;28;20205;-69
2021/07/07 03:14:57;;;;;;;9.63;3.75;;;;;;;20.81;100.00;96142.00;5043744;28;20225;-69
2021/07/07 03:17:24;;;;;;;8.63;4.05;;;;;;;20.85;100.00;96149.34;5042929;28;20220;-69
2021/07/07 03:19:50;;;;;;;7.43;3.90;;;;;;;20.94;100.00;96158.59;5043439;28;20209;-69
2021/07/07 03:22:19;;;;;;;7.78;3.80;;;;;;;20.96;100.00;96153.81;5043488;28;20220;-69
2021/07/07 03:24:46;;;;;;;9.65;3.72;;;;;;;20.93;100.00;96156.97;5042575;28;20208;-69
2021/07/07 03:27:13;;;;;;;5.95;4.07;;;;;;;20.89;100.00;96163.88;5042979;28;20201;-69
2021/07/07 03:29:39;;;;;;;7.18;3.75;;;;;;;20.83;100.00;96171.25;5040586;28;20236;-69
2021/07/07 03:32:06;;;;;;;6.57;4.15;;;;;;;20.77;100.00;96166.88;5041950;28;20197;-69
2021/07/07 03:34:33;;;;;;;8.75;4.68;;;;;;;20.67;100.00;96163.97;5043944;28;20209;-69
2021/07/07 03:37:00;;;;;;;7.22;4.47;;;;;;;20.79;100.00;96164.78;5043169;28;20208;-69
2021/07/07 03:39:28;;;;;;;7.50;4.05;;;;;;;20.68;100.00;96184.34;5042431;28;20225;-69
2021/07/07 03:41:54;;;;;;;10.48;4.50;;;;;;;20.70;100.00;96179.56;5042228;28;20553;-69
2021/07/07 03:44:21;;;;;;;9.98;4.20;;;;;;;20.61;100.00;96189.03;5040074;28;20201;-69
2021/07/07 03:46:47;;;;;;;8.30;4.10;;;;;;;20.75;100.00;96195.75;5040357;28;21276;-69
2021/07/07 03:49:14;;;;;;;11.38;4.80;;;;;;;20.52;100.00;96187.78;5039752;28;20221;-68
2021/07/07 03:51:40;;;;;;;9.23;4.38;;;;;;;20.58;100.00;96190.34;5040186;28;21028;-69
2021/07/07 03:54:07;;;;;;;8.55;4.38;;;;;;;20.74;100.00;96186.09;5042096;28;20818;-69
2021/07/07 03:56:35;;;;;;;6.53;4.65;;;;;;;20.77;100.00;96188.28;5044860;28;20236;-69
2021/07/07 03:59:01;;;;;;;9.25;5.10;;;;;;;20.78;100.00;96189.91;5043835;28;20243;-69
2021/07/07 04:01:28;;;;;;;8.00;4.57;;;;;;;20.79;100.00;96196.91;5044437;28;20853;-69
2021/07/07 04:03:54;;;;;;;8.13;4.53;;;;;;;20.68;100.00;96187.03;5044297;28;20224;-68
2021/07/07 04:06:21;;;;;;;6.15;4.90;;;;;;;20.77;100.00;96186.41;5045388;28;20248;-69
2021/07/07 04:08:47;;;;;;;9.00;4.68;;;;;;;20.77;100.00;96193.66;5044466;28;20221;-69
2021/07/07 04:11:13;;;;;;;5.93;4.38;;;;;;;20.74;100.00;96213.69;5043652;28;20209;-69
2021/07/07 04:13:41;;;;;;;6.32;4.18;;;;;;;20.77;100.00;96215.88;5044845;28;20212;-69
2021/07/07 04:16:08;;;;;;;6.22;4.60;;;;;;;20.59;100.00;96207.22;5044648;28;20727;-69
2021/07/07 04:18:34;;;;;;;9.05;4.00;;;;;;;20.48;100.00;96198.19;5043167;28;20225;-69
2021/07/07 04:21:01;;;;;;;10.98;4.90;;;;;;;20.54;100.00;96188.38;5044234;28;20276;-69
2021/07/07 04:23:27;;;;;;;11.75;4.20;;;;;;;20.65;100.00;96184.84;5044030;28;20201;-69
2021/07/07 04:25:54;;;;;;;8.77;4.93;;;;;;;20.71;100.00;96181.16;5044445;28;20209;-69
2021/07/07 04:28:20;;;;;;;9.63;4.32;;;;;;;20.72;100.00;96169.41;5041167;28;20217;-69
2021/07/07 04:30:48;;;;;;;9.70;4.60;;;;;;;20.64;100.00;96172.50;5045129;28;20205;-69
2021/07/07 04:33:14;;;;;;;8.55;4.97;;;;;;;20.60;100.00;96182.06;5042964;28;20198;-69
2021/07/07 04:35:41;;;;;;;6.65;4.63;;;;;;;20.60;100.00;96187.41;5043419;28;20776;-68
2021/07/07 04:38:08;;;;;;;8.90;4.43;;;;;;;20.45;100.00;96190.59;5042900;28;20225;-69
2021/07/07 04:40:34;;;;;;;9.27;4.35;;;;;;;20.69;100.00;96196.69;5042994;28;20209;-69
2021/07/07 04:43:01;;;;;;;9.95;4.20;;;;;;;20.83;100.00;96194.28;5043560;28;20209;-69
2021/07/07 04:45:27;;;;;;;7.18;4.30;;;;;;;20.80;100.00;96211.91;5042786;28;20212;-69
2021/07/07 04:47:55;;;;;;;9.10;4.30;;;;;;;20.84;100.00;96212.00;5042937;28;20235;-68
2021/07/07 04:50:21;;;;;;;8.35;4.50;;;;;;;20.89;100.00;96208.63;5042951;28;20212;-68
2021/07/07 04:52:48;;;;;;;5.80;4.05;;;;;;;20.93;100.00;96215.13;5042998;28;20205;-68
2021/07/07 04:55:18;;;;;;;6.72;4.35;;;;;;;21.01;100.00;96217.38;5043177;28;20231;-68
2021/07/07 04:57:44;;;;;;;9.85;4.82;;;;;;;20.65;100.00;96223.13;5042446;28;20237;-68
2021/07/07 05:00:13;;;;;;;7.30;4.40;;;;;;;20.67;100.00;96214.84;5042868;28;20205;-69
2021/07/07 05:02:41;;;;;;;5.90;4.50;;;;;;;20.73;100.00;96213.94;5042755;28;20669;-69
2021/07/07 05:05:11;;;;;;;13.88;5.40;;;;;;;20.75;100.00;96223.34;5042356;28;20300;-69
2021/07/07 05:07:38;;;;;;;9.50;5.95;;;;;;;20.74;100.00;96221.72;5041631;28;20282;-69
2021/07/07 05:10:06;;;;;;;12.40;6.47;;;;;;;20.75;100.00;96215.31;5041803;28;20212;-68
2021/07/07 05:12:33;;;;;;;9.07;5.57;;;;;;;20.70;100.00;96214.38;5042704;28;20288;-69
2021/07/07 05:15:00;;;;;;;10.18;6.07;;;;;;;20.65;100.00;96223.13;5042708;28;20213;-68
2021/07/07 05:17:27;;;;;;;12.27;6.32;;;;;;;20.69;100.00;96224.28;5040997;28;20219;-68
2021/07/07 05:19:54;;;;;;;11.50;5.53;;;;;;;20.81;100.00;96225.06;5042771;28;21111;-68
2021/07/07 05:22:22;;;;;;;7.28;5.10;;;;;;;20.95;100.00;96224.53;5042973;28;20582;-68
2021/07/07 05:24:48;;;;;;;12.77;6.68;;;;;;;20.76;100.00;96224.97;5042410;28;20220;-68
2021/07/07 05:27:15;;;;;;;11.40;6.05;;;;;;;20.68;100.00;96230.66;5041541;28;20201;-69
2021/07/07 05:29:42;;;;;;;15.88;7.05;;;;;;;20.75;100.00;96234.06;5040325;28;20221;-68
2021/07/07 05:32:09;;;;;;;12.48;6.43;;;;;;;20.84;100.00;96228.06;5041875;28;20665;-68
2021/07/07 05:34:37;;;;;;;12.40;6.40;;;;;;;20.81;100.00;96232.28;5041805;28;21087;-69
2021/07/07 05:37:04;;;;;;;15.05;7.15;;;;;;;20.72;100.00;96223.81;5041674;28;20220;-68
2021/07/07 05:39:32;;;;;;;12.40;6.63;;;;;;;20.76;100.00;96230.34;5041810;28;20225;-69
2021/07/07 05:41:58;;;;;;;10.75;6.22;;;;;;;20.58;100.00;96235.03;5042023;28;20220;-69
2021/07/07 05:44:26;;;;;;;14.25;6.18;;;;;;;20.57;100.00;96228.88;5041927;28;20205;-68
2021/07/07 05:46:52;;;;;;;11.50;5.90;;;;;;;20.55;100.00;96228.28;5042238;28;20204;-69
2021/07/07 05:49:19;;;;;;;10.85;6.25;;;;;;;20.52;100.00;96228.78;5040865;28;20229;-68
2021/07/07 05:51:45;;;;;;;12.13;6.40;;;;;;;20.58;100.00;96237.69;5042236;28;20209;-69
2021/07/07 05:54:12;;;;;;;13.38;5.97;;;;;;;20.59;100.00;96228.63;5043171;28;20681;-69
2021/07/07 05:56:39;;;;;;;9.20;5.63;;;;;;;20.64;100.00;96226.06;5042575;28;20228;-69
2021/07/07 05:59:06;;;;;;;10.35;5.80;;;;;;;20.45;100.00;96214.69;5041080;28;20241;-69
2021/07/07 06:01:32;;;;;;;8.80;5.70;;;;;;;20.52;100.00;96214.56;5042904;28;20216;-69
2021/07/07 06:03:59;;;;;;;13.25;6.18;;;;;;;20.52;100.00;96220.72;5042412;28;20220;-69
2021/07/07 06:06:26;;;;;;;12.15;5.40;;;;;;;20.65;100.00;96227.69;5043409;28;20205;-69
2021/07/07 06:08:53;;;;;;;10.75;5.45;;;;;;;20.78;100.00;96233.56;5042070;28;20217;-69
2021/07/07 06:11:20;;;;;;;13.13;5.70;;;;;;;20.85;100.00;96235.06;5041799;28;20217;-68
2021/07/07 06:13:48;;;;;;;9.43;5.10;;;;;;;20.92;100.00;96235.72;5042664;28;20209;-69
2021/07/07 06:16:14;;;;;;;9.50;5.35;;;;;;;20.82;100.00;96242.75;5041415;28;20229;-69
2021/07/07 06:18:41;;;;;;;9.55;5.20;;;;;;;20.70;100.00;96241.97;5040817;28;20252;-68
2021/07/07 06:21:07;;;;;;;8.30;5.05;;;;;;;20.63;100.00;96237.81;5041103;28;20208;-68
2021/07/07 06:23:34;;;;;;;9.73;5.68;;;;;;;20.46;100.00;96235.06;5041343;28;20214;-68
2021/07/07 06:26:00;;;;;;;10.10;5.43;;;;;;;20.57;100.00;96238.75;5041181;28;20201;-68
2021/07/07 06:28:27;;;;;;;13.25;5.53;;;;;;;20.55;100.00;96239.00;5037827;28;20225;-68
2021/07/07 06:30:55;;;;;;;8.88;5.13;;;;;;;20.84;100.00;96246.81;5041677;28;20208;-68
2021/07/07 06:33:21;;;;;;;8.00;5.50;;;;;;;20.88;100.00;96257.88;5041237;28;20688;-69
2021/07/07 06:35:48;;;;;;;9.93;5.78;;;;;;;20.88;100.00;96272.06;5040926;28;20229;-68
2021/07/07 06:38:15;;;;;;;12.07;5.40;;;;;;;20.86;100.00;96284.91;5040819;28;20228;-68
2021/07/07 06:40:41;;;;;;;7.68;5.13;;;;;;;20.94;100.00;96279.16;5041829;28;20201;-68
2021/07/07 06:43:08;;;;;;;7.65;4.88;;;;;;;20.94;100.00;96276.47;5040964;28;20212;-68
2021/07/07 06:45:37;;;;;;;9.23;4.85;;;;;;;21.11;100.00;96273.84;5040785;28;20732;-68
2021/07/07 06:48:06;;;;;;;5.72;4.93;;;;;;;21.15;100.00;96286.50;5040478;28;20246;-68
2021/07/07 06:50:32;;;;;;;7.50;5.32;;;;;;;21.12;100.00;96283.53;5040139;28;20205;-68
2021/07/07 06:52:59;;;;;;;7.82;5.20;;;;;;;21.09;100.00;96287.50;5040294;28;20205;-68
2021/07/07 06:55:26;;;;;;;9.10;5.53;;;;;;;21.17;100.00;96291.66;5041192;28;20209;-68
2021/07/07 06:57:52;;;;;;;7.45;5.50;;;;;;;21.09;100.00;96289.34;5039673;28;20236;-68
2021/07/07 07:00:20;;;;;;;8.30;4.80;;;;;;;21.09;100.00;96294.69;5039919;28;20891;-69
2021/07/07 07:02:47;;;;;;;8.18;4.40;;;;;;;21.06;100.00;96298.66;5040970;28;20208;-68
2021/07/07 07:05:18;;;;;;;7.50;4.60;;;;;;;21.09;100.00;96300.06;5040564;28;20201;-69
2021/07/07 07:07:45;;;;;;;6.97;4.13;;;;;;;21.15;100.00;96299.09;5039887;28;21031;-68
2021/07/07 07:10:14;;;;;;;5.55;3.53;;;;;;;21.26;99.62;96314.34;5040089;28;20197;-68
2021/07/07 07:12:41;;;;;;;14.30;4.68;;;;;;;21.34;99.46;96322.78;5040528;28;20669;-68
2021/07/07 07:15:11;;;;;;;5.25;3.38;;;;;;;21.24;99.08;96327.94;5040405;28;20792;-68
2021/07/07 07:17:38;;;;;;;5.70;3.97;;;;;;;21.22;97.78;96331.91;5039883;28;20221;-69
2021/07/07 07:20:07;;;;;;;5.95;3.88;;;;;;;21.32;99.32;96341.00;5040437;28;20217;-68
2021/07/07 07:22:35;;;;;;;4.38;3.60;;;;;;;21.40;99.29;96343.28;5040265;28;20209;-68
2021/07/07 07:25:02;;;;;;;9.75;3.85;;;;;;;21.45;99.05;96344.16;5040577;28;20201;-69
2021/07/07 07:27:28;;;;;;;5.63;3.97;;;;;;;21.29;100.00;96338.78;5039393;28;20220;-69
2021/07/07 07:29:55;;;;;;;6.00;4.18;;;;;;;21.55;99.32;96341.69;5036038;28;20201;-68
2021/07/07 07:32:21;;;;;;;7.28;3.60;;;;;;;21.56;99.34;96340.66;5037538;28;20212;-68
2021/07/07 07:34:48;;;;;;;8.27;3.83;;;;;;;21.68;99.03;96346.75;5038259;28;20205;-68
2021/07/07 07:37:21;;;;;;;8.00;3.90;;;;;;;21.61;99.71;96356.84;5037024;28;20240;-68
2021/07/07 07:39:51;;;;;;;8.20;4.22;;;;;;;21.73;98.75;96352.19;5037023;28;20898;-69
2021/07/07 07:42:19;;;;;;;6.22;3.83;;;;;;;21.71;97.93;96365.03;5037426;28;20669;-68
2021/07/07 07:44:46;;;;;;;6.82;3.85;;;;;;;21.42;99.93;96360.75;5038431;28;20581;-69
2021/07/07 07:47:14;;;;;;;4.53;3.70;;;;;;;21.36;98.44;96368.94;5037783;28;20209;-69
2021/07/07 07:49:41;;;;;;;6.03;4.30;;;;;;;21.25;97.90;96369.00;5038657;28;20600;-68
2021/07/07 07:52:08;;;;;;;8.25;4.45;;;;;;;21.07;100.00;96382.56;5038947;28;20200;-69
2021/07/07 07:54:35;;;;;;;7.22;4.93;;;;;;;20.83;100.00;96387.16;5039138;28;20205;-68
2021/07/07 07:57:04;;;;;;;8.23;4.90;;;;;;;20.95;100.00;96382.63;5039027;28;20225;-68
2021/07/07 07:59:30;;;;;;;7.35;4.70;;;;;;;21.04;100.00;96383.88;5038312;28;20335;-69
2021/07/07 08:01:57;;;;;;;7.70;5.35;;;;;;;20.89;100.00;96393.47;5040263;28;20216;-69
2021/07/07 08:04:23;;;;;;;7.38;4.95;;;;;;;20.99;100.00;96391.81;5041204;28;20213;-69
2021/07/07 08:06:50;;;;;;;7.47;4.75;;;;;;;21.01;100.00;96399.59;5041770;28;20231;-69
2021/07/07 08:09:16;;;;;;;8.45;5.20;;;;;;;21.07;100.00;96393.28;5039758;28;20221;-69
2021/07/07 08:11:43;;;;;;;8.05;5.75;;;;;;;21.17;100.00;96393.50;5040361;28;20456;-69
2021/07/07 08:14:11;;;;;;;7.55;5.82;;;;;;;21.27;99.56;96396.34;5040036;28;20212;-69
2021/07/07 08:16:38;;;;;;;10.82;6.75;;;;;;;21.32;99.17;96402.66;5039611;28;20626;-69
2021/07/07 08:19:05;;;;;;;11.75;6.88;;;;;;;21.45;100.00;96397.00;5039592;28;20642;-69
2021/07/07 08:21:31;;;;;;;12.93;6.82;;;;;;;21.48;100.00;96396.50;5039644;28;20205;-69
2021/07/07 08:24:00;;;;;;;10.68;7.50;;;;;;;21.62;100.00;96392.50;5039592;28;20708;-69
2021/07/07 08:26:27;;;;;;;12.63;7.25;;;;;;;21.72;100.00;96392.69;5039498;28;20228;-69
2021/07/07 08:28:53;;;;;;;5.85;5.25;;;;;;;21.73;96.62;96405.06;5037083;28;20296;-69
2021/07/07 08:31:21;;;;;;;7.43;4.28;;;;;;;21.64;94.24;96406.50;5039452;28;20205;-69
2021/07/07 08:33:47;;;;;;;7.72;4.50;;;;;;;21.70;94.15;96410.88;5039141;28;20216;-69
2021/07/07 08:36:19;;;;;;;7.40;4.90;;;;;;;21.83;93.38;96415.94;5039275;28;20201;-68
2021/07/07 08:38:45;;;;;;;7.57;5.20;;;;;;;21.80;95.57;96419.91;5038816;28;20720;-68
2021/07/07 08:41:12;;;;;;;11.88;4.97;;;;;;;21.94;95.55;96421.25;5042781;28;20205;-69
2021/07/07 08:43:38;;;;;;;9.32;4.60;;;;;;;21.92;94.74;96431.41;5043856;28;20205;-69
2021/07/07 08:46:04;;;;;;;6.90;4.90;;;;;;;21.98;95.08;96429.63;5043948;28;20471;-69
2021/07/07 08:48:32;;;;;;;5.72;4.00;;;;;;;21.94;94.12;96431.16;5043350;28;20800;-69
2021/07/07 08:51:02;;;;;;;6.40;4.57;;;;;;;21.96;95.92;96429.03;5043903;28;20205;-69
2021/07/07 08:53:28;;;;;;;7.07;4.18;;;;;;;21.99;96.24;96420.53;5043795;28;20219;-69
2021/07/07 08:55:55;;;;;;;6.72;4.47;;;;;;;22.01;96.12;96421.06;5043225;28;20212;-69
2021/07/07 08:58:21;;;;;;;6.30;4.60;;;;;;;21.91;95.21;96426.28;5042076;28;20724;-69
2021/07/07 09:00:50;;;;;;;8.10;5.53;;;;;;;21.91;96.99;96429.78;5043571;28;20212;-69
2021/07/07 09:03:19;;;;;;;7.68;4.13;;;;;;;21.70;95.03;96421.63;5043010;28;20205;-69
2021/07/07 09:05:53;;;;;;;5.95;4.80;;;;;;;21.73;96.24;96413.09;5044055;28;20628;-69
2021/07/07 09:08:28;;;;;;;8.27;4.72;;;;;;;21.54;96.34;96398.25;5043604;28;20731;-69
2021/07/07 09:10:56;;;;;;;8.75;5.25;;;;;;;21.53;98.60;96399.31;5043631;28;20200;-68
2021/07/07 09:13:24;;;;;;;8.27;4.97;;;;;;;21.58;98.94;96407.44;5043234;28;20210;-69
2021/07/07 09:15:52;;;;;;;5.82;4.38;;;;;;;21.73;97.05;96405.06;5043590;28;20228;-69
2021/07/07 09:18:21;;;;;;;6.10;4.25;;;;;;;21.81;95.12;96410.81;5043088;28;20229;-69
2021/07/07 09:20:50;;;;;;;7.10;4.30;;;;;;;21.81;96.54;96407.34;5043116;28;20215;-69
2021/07/07 09:23:19;;;;;;;5.68;3.97;;;;;;;21.82;96.46;96414.34;5043779;28;20217;-69
2021/07/07 09:25:48;;;;;;;7.72;4.63;;;;;;;21.83;96.69;96410.56;5044084;28;20201;-69
2021/07/07 09:28:16;;;;;;;11.45;4.75;;;;;;;21.96;98.86;96412.94;5040374;28;20213;-69
2021/07/07 09:30:43;;;;;;;7.95;4.32;;;;;;;21.93;96.13;96422.31;5044129;28;20209;-69
2021/07/07 09:33:10;;;;;;;5.35;4.38;;;;;;;21.83;96.17;96424.81;5043029;28;20201;-69
2021/07/07 09:35:37;;;;;;;6.88;4.50;;;;;;;21.85;97.95;96424.56;5042483;28;20215;-69
2021/07/07 09:38:07;;;;;;;6.05;4.22;;;;;;;21.93;97.85;96421.47;5041024;28;20228;-68
2021/07/07 09:40:36;;;;;;;7.70;4.15;;;;;;;21.95;96.36;96424.75;5042031;28;20619;-69
2021/07/07 09:43:04;;;;;;;6.90;4.85;;;;;;;21.84;97.28;96429.13;5041442;28;20201;-69
2021/07/07 09:45:31;;;;;;;5.95;3.47;;;;;;;21.86;94.96;96431.56;5041782;28;20625;-69
2021/07/07 09:47:59;;;;;;;5.00;3.30;;;;;;;21.93;95.33;96425.00;5041220;28;20236;-69
2021/07/07 09:50:26;;;;;;;7.47;3.80;;;;;;;21.88;95.04;96432.13;5040774;28;20205;-69
2021/07/07 09:52:56;;;;;;;6.22;3.88;;;;;;;21.97;97.04;96436.88;5040437;28;20607;-69
2021/07/07 09:55:26;;;;;;;6.22;3.92;;;;;;;22.06;96.41;96433.53;5042094;28;20197;-69
2021/07/07 09:57:53;;;;;;;5.80;3.60;;;;;;;21.98;96.32;96426.94;5041290;28;20229;-68
2021/07/07 10:00:22;;;;;;;3.58;3.25;;;;;;;22.00;94.31;96430.22;5042888;28;20209;-69
2021/07/07 10:02:50;;;;;;;7.82;3.80;;;;;;;21.88;95.92;96424.06;5042888;28;20209;-69
2021/07/07 10:05:18;;;;;;;5.68;3.38;;;;;;;21.68;97.09;96421.06;5042081;28;20692;-69
2021/07/07 10:07:46;;;;;;;4.30;3.15;;;;;;;21.70;96.59;96421.63;5040965;28;20225;-69
2021/07/07 10:10:14;;;;;;;6.07;3.50;;;;;;;21.72;96.01;96420.31;5041757;28;20213;-69
2021/07/07 10:12:44;;;;;;;3.72;3.28;;;;;;;21.79;95.95;96418.31;5042955;28;20209;-69
2021/07/07 10:15:13;;;;;;;5.55;3.70;;;;;;;21.85;97.52;96424.56;5042137;28;20200;-68
2021/07/07 10:17:40;;;;;;;4.15;3.33;;;;;;;21.81;96.72;96423.44;5041028;28;20935;-69
2021/07/07 10:20:09;;;;;;;3.85;3.45;;;;;;;21.79;97.18;96420.16;5041664;28;20201;-68
2021/07/07 10:22:36;;;;;;;6.15;3.63;;;;;;;21.89;96.91;96423.84;5041902;28;20205;-68
2021/07/07 10:25:03;;;;;;;5.15;3.50;;;;;;;21.92;95.57;96425.22;5041910;28;20205;-68
2021/07/07 10:27:32;;;;;;;5.43;3.20;;;;;;;21.84;96.35;96431.00;5041233;28;20201;-68
2021/07/07 10:30:00;;;;;;;8.65;3.33;;;;;;;21.70;95.25;96426.97;5037927;28;20216;-69
2021/07/07 10:32:29;;;;;;;6.10;2.70;;;;;;;21.87;92.08;96422.44;5040515;28;20998;-69
2021/07/07 10:35:04;;;;;;;4.50;2.88;;;;;;;22.07;92.59;96429.81;5040416;28;20682;-68
2021/07/07 10:37:33;;;;;;;3.60;2.85;;;;;;;22.13;93.05;96430.69;5040038;28;20228;-69
2021/07/07 10:40:22;;;;;;;3.65;2.55;;;;;;;22.01;91.98;96429.97;5039955;28;20205;-68
2021/07/07 10:42:49;;;;;;;2.90;2.58;;;;;;;22.07;92.90;96429.81;5040015;28;20209;-69
2021/07/07 10:45:30;;;;;;;8.40;4.18;;;;;;;22.08;92.40;96436.81;5040278;28;20197;-68
2021/07/07 10:48:24;;;;;;;6.18;2.80;;;;;;;22.12;91.66;96437.09;5039285;28;20873;-69
2021/07/07 10:50:51;;;;;;;4.22;2.55;;;;;;;22.08;91.82;96436.81;5039937;28;20220;-68
2021/07/07 10:53:30;;;;;;;4.88;3.20;;;;;;;22.18;90.64;96439.63;5040529;28;20662;-68
2021/07/07 10:55:58;;;;;;;2.92;2.33;;;;;;;22.19;91.30;96441.25;5040448;28;20201;-69
2021/07/07 10:58:31;;;;;;;4.53;3.10;;;;;;;22.37;91.72;96441.06;5039449;28;20225;-69
2021/07/07 11:00:59;;;;;;;2.92;2.60;;;;;;;22.44;90.36;96440.88;5040939;28;20216;-69
2021/07/07 11:03:36;;;;;;;5.40;3.08;;;;;;;22.48;91.22;96442.84;5040144;28;20201;-69
2021/07/07 11:06:25;;;;;;;5.70;2.58;;;;;;;22.37;90.73;96435.69;5040134;28;20204;-69
2021/07/07 11:08:57;;;;;;;3.28;2.97;;;;;;;22.29;91.89;96432.63;5038531;28;20302;-70
2021/07/07 11:11:25;;;;;;;5.18;3.25;;;;;;;22.33;93.17;96429.19;5040464;28;20215;-70
2021/07/07 11:13:52;;;;;;;7.00;3.05;;;;;;;22.24;93.60;96435.97;5039606;28;20212;-70
2021/07/07 11:16:21;;;;;;;5.72;3.08;;;;;;;22.41;92.58;96436.00;5038896;28;20205;-70
2021/07/07 11:18:49;;;;;;;7.47;3.10;;;;;;;22.35;92.74;96437.81;5038483;28;20704;-70
2021/07/07 11:21:16;;;;;;;5.25;3.55;;;;;;;22.50;92.65;96440.72;5039788;28;20260;-70
2021/07/07 11:23:43;;;;;;;4.68;3.35;;;;;;;22.34;92.38;96428.13;5038080;28;20570;-70
2021/07/07 11:26:10;;;;;;;5.13;3.35;;;;;;;22.53;93.26;96434.88;5039471;28;20201;-69
2021/07/07 11:28:37;;;;;;;3.60;2.97;;;;;;;22.48;90.42;96437.47;5037499;28;20222;-70
2021/07/07 11:31:04;;;;;;;4.78;3.20;;;;;;;22.64;92.73;96427.78;5038730;28;20213;-69